WWCO2: Wewoka Creek nr Wetumka OK

Data processed at Fri Mar 09 2018 23:01


All information presented herein is the property of the government of the United States of America and may be revised or deleted at any time without prior notice.
Dissemination of this information without the expressed written consent of the Public Affairs Office, Tulsa District U.S. Army Corps of Engineers is strictly prohibited.
These data are gathered electronically and, as presented, have not undergone any form of quality control. These data are not guaranteed to be valid or correct.
Go to home page.
Go to station list.

Downstream station:


Previous Day
Next Day
Current Day
    
SHEF ID:       WWCO2     Wewoka Creek nr Wetumka OK
STATION TYPE:  

               PRECIP     STAGE  RIV-FLOW   VOLTAGE  BAT-LOAD
                   in        ft       cfs      volt      volt
              Ccp-Rev   Ccp-Rev   Ccp-Rev   Ccp-Rev   Ccp-Rev
(US/Central)
03/07 00:00      0.00      7.27       291     12.57     12.49
03/07 01:00      0.00      7.24       286     12.49     12.49
03/07 02:00      0.00      7.22       283     12.57     12.49
03/07 03:00      0.00      7.20       279     12.49     12.41
03/07 04:00      0.00      7.17       274     12.49     12.41
03/07 05:00      0.00      7.16       272     12.49     12.41
03/07 06:00      0.00      7.11       264     12.49     12.41
03/07 07:00      0.00      7.11       264     12.41     12.41
03/07 08:00      0.00      7.08       259     12.41     12.41
03/07 09:00      0.00      7.06       255     13.53     13.37
03/07 10:00      0.00      7.04       252     13.37     13.37
03/07 11:00      0.00      7.02       249     14.08     13.60
03/07 12:00      0.00      6.99       244     13.44     14.16
03/07 13:00      0.00      6.98       242     13.37     14.00
03/07 14:00      0.00      6.92       227     13.37     13.60
03/07 15:00      0.00      6.92       227     13.29     14.16
03/07 16:00      0.00      6.89       221     13.44     13.53
03/07 17:00      0.00      6.89       221     13.92     13.29
03/07 18:00      0.00      6.87       216     13.84     12.89
03/07 19:00      0.00      6.85       212     12.97     12.81
03/07 20:00      0.00      6.85       212     12.65     12.65
03/07 21:00      0.00      6.84       210     12.65     12.65
03/07 22:00      0.00      6.83       208     12.65     12.57
03/07 23:00      0.00      6.82       205     12.57     12.57